McHenry, IL

4:56 AM CDT on August 30, 2015 (GMT -0500)
Glacier Ridge - West Side | | Change Station
CLOSE
Current Station
Personal Weather Station
Location: McHenry, IL
Elevation: 925 ft
Nearby Weather Stations

Elev 925 ft 42.35 °N, 88.33 °W | Updated 1 minute ago

Overcast
Overcast
63.0 °F
Feels Like 63.0 °F
N
0.0
Wind Variable Wind from WNW
Gusts 0.0 mph

Today
High -- | Low -- °F
--% Chance of Precip.
Yesterday
High -- | Low -- °F
Precip. -- in
6:16 AM 7:30 PM
Full, 99% visible
Pressure 30.03 in
Visibility 2.5 miles
Clouds Overcast 200 ft
Dew Point 60 °F
Humidity 90%
Rainfall in
Snow Depth Not available.
UV 0 out of 12
Pollen 1.10 out of 12
Air Quality Not available.
Flu Activity Not available.
SPECI KUGN 300938Z AUTO 00000KT 2 1/2SM BR OVC002 17/17 A3003 RMK AO2 T01720172
Pressure 30.03 in
Visibility 2.5 miles
Clouds Overcast 200 ft
Dew Point 60 °F
Humidity 90%
Rainfall in
Snow Depth Not available.
UV 0 out of 12
Pollen 1.10 out of 12
Air Quality Not available.
Flu Activity Not available.
SPECI KUGN 300938Z AUTO 00000KT 2 1/2SM BR OVC002 17/17 A3003 RMK AO2 T01720172

10-Day Weather Forecast

×

Almanac

Astronomy

Aug. 30, 2015 Rise Set
Actual Time
Civil Twilight
Nautical Twilight
Astronomical Twilight
Moon
Length of Visible Light
Length of Day
Tomorrow will be .
, % of the Moon is Illuminated

Today's Extremes

State Highs State Lows

Community

WunderPhotos

Upload Photos

1,850,919 photos uploaded!

WunderBlogs® & News

Nearby

Air Quality

  Air Quality AQ Index Pollutant
Not available.

Snow Depth

Station Depth Elevation

Earthquake Activity

City Distance Mag. Time & Date
Minimum magnitude displayed is 2.5.

Coastal Water Temperatures

Place Temperature

Stations

Nearby Weather Stations

Station Location Temp. Windchill Dew Point Humidity Wind Precip. Elev Updated Type